createdAt,value
2023-06-04T00:01:49.827Z,55.26
2023-06-04T00:04:18.230Z,55.99
2023-06-04T00:06:46.687Z,55.88
2023-06-04T00:09:14.915Z,55.94
2023-06-04T00:11:43.344Z,56.01
2023-06-04T00:14:12.490Z,56.07
2023-06-04T00:16:42.157Z,56.47
2023-06-04T00:19:10.861Z,56.50
2023-06-04T00:21:39.346Z,56.58
2023-06-04T00:24:07.926Z,56.74
2023-06-04T00:26:36.219Z,56.98
2023-06-04T00:29:04.709Z,57.22
2023-06-04T00:31:33.384Z,57.57
2023-06-04T00:34:01.689Z,58.02
2023-06-04T00:36:29.905Z,57.99
2023-06-04T00:38:58.068Z,58.28
2023-06-04T00:41:26.563Z,58.52
2023-06-04T00:43:59.408Z,58.70
2023-06-04T00:46:28.201Z,59.10
2023-06-04T00:48:57.039Z,59.12
2023-06-04T00:51:27.254Z,59.25
2023-06-04T00:53:55.957Z,59.42
2023-06-04T00:56:24.509Z,59.36
2023-06-04T00:58:55.168Z,59.51
2023-06-04T01:01:38.053Z,59.33
2023-06-04T01:04:13.691Z,59.31
2023-06-04T01:06:48.891Z,59.57
2023-06-04T01:09:18.049Z,59.50
2023-06-04T01:11:46.265Z,59.67
2023-06-04T01:14:14.933Z,59.86
2023-06-04T01:17:09.971Z,60.21
2023-06-04T01:20:06.105Z,60.14
2023-06-04T01:22:43.421Z,60.10
2023-06-04T01:25:21.722Z,60.48
2023-06-04T01:27:53.553Z,60.49
2023-06-04T01:30:25.177Z,60.31
2023-06-04T01:32:56.778Z,60.24
2023-06-04T01:35:28.244Z,60.50
2023-06-04T01:37:57.467Z,60.77
2023-06-04T01:40:26.926Z,60.63
2023-06-04T01:42:56.100Z,60.71
2023-06-04T01:45:27.744Z,60.48
2023-06-04T01:47:57.838Z,60.69
2023-06-04T01:50:26.661Z,60.65
2023-06-04T01:52:55.529Z,60.62
2023-06-04T01:55:26.397Z,60.66
2023-06-04T01:57:54.901Z,60.88
2023-06-04T02:00:23.372Z,61.19
2023-06-04T02:02:51.884Z,60.98
2023-06-04T02:05:20.446Z,61.37
2023-06-04T02:07:49.382Z,61.29
2023-06-04T02:10:21.228Z,61.39
2023-06-04T02:13:00.917Z,61.47
2023-06-04T02:15:29.436Z,61.75
2023-06-04T02:18:22.282Z,62.15
2023-06-04T02:20:51.314Z,62.23
2023-06-04T02:23:21.188Z,62.57
2023-06-04T02:25:51.065Z,62.94
2023-06-04T02:28:19.621Z,63.10
2023-06-04T02:30:48.555Z,62.96
2023-06-04T02:33:17.479Z,63.28
2023-06-04T02:35:46.000Z,63.35
2023-06-04T02:38:14.591Z,63.48
2023-06-04T02:40:44.200Z,63.47
2023-06-04T02:43:13.254Z,63.65
2023-06-04T02:45:42.223Z,63.70
2023-06-04T02:48:10.895Z,63.51
2023-06-04T02:50:40.081Z,63.56
2023-06-04T02:53:08.566Z,63.56
2023-06-04T02:55:37.507Z,63.57
2023-06-04T02:58:05.864Z,63.30
2023-06-04T03:00:34.405Z,63.32
2023-06-04T03:03:03.751Z,63.29
2023-06-04T03:05:33.261Z,63.42
2023-06-04T03:08:04.101Z,63.07
2023-06-04T03:10:32.898Z,63.00
2023-06-04T03:13:01.263Z,62.97
2023-06-04T03:15:29.960Z,62.95
2023-06-04T03:17:58.611Z,63.02
2023-06-04T03:20:26.955Z,62.84
2023-06-04T03:22:55.425Z,62.93
2023-06-04T03:25:25.033Z,62.84
2023-06-04T03:27:53.826Z,62.78
2023-06-04T03:30:22.349Z,62.72
2023-06-04T03:33:00.322Z,62.53
2023-06-04T03:35:28.924Z,62.69
2023-06-04T03:37:57.089Z,62.67
2023-06-04T03:40:25.990Z,62.56
2023-06-04T03:42:54.904Z,62.52
2023-06-04T03:45:26.547Z,62.41
2023-06-04T03:47:55.178Z,62.30
2023-06-04T03:50:24.049Z,62.12
2023-06-04T03:52:54.673Z,62.02
2023-06-04T03:55:23.960Z,61.89
2023-06-04T03:57:52.863Z,61.66
2023-06-04T04:00:22.473Z,61.57
2023-06-04T04:02:51.926Z,61.43
2023-06-04T04:05:24.173Z,61.27
2023-06-04T04:07:52.751Z,61.04
2023-06-04T04:10:25.571Z,60.89
2023-06-04T04:12:56.229Z,60.92
2023-06-04T04:15:25.092Z,60.65
2023-06-04T04:17:54.670Z,60.72
2023-06-04T04:20:23.796Z,60.73
2023-06-04T04:22:57.492Z,60.34
2023-06-04T04:25:26.483Z,60.00
2023-06-04T04:27:57.679Z,59.86
2023-06-04T04:30:27.073Z,59.32
2023-06-04T04:32:57.242Z,58.88
2023-06-04T04:35:30.460Z,58.30
2023-06-04T04:38:00.643Z,57.98
2023-06-04T04:40:29.010Z,57.64
2023-06-04T04:42:59.403Z,57.43
2023-06-04T04:45:27.887Z,57.14
2023-06-04T04:47:58.506Z,57.01
2023-06-04T04:50:27.153Z,56.94
2023-06-04T04:52:55.816Z,57.18
2023-06-04T04:55:24.929Z,57.02
2023-06-04T04:57:53.431Z,56.92
2023-06-04T05:00:22.392Z,56.78
2023-06-04T05:02:53.268Z,56.46
2023-06-04T05:05:21.708Z,56.23
2023-06-04T05:07:51.118Z,56.12
2023-06-04T05:10:20.123Z,55.72
2023-06-04T05:12:53.419Z,55.56
2023-06-04T05:15:22.210Z,55.18
2023-06-04T05:17:53.477Z,54.88
2023-06-04T05:20:22.222Z,54.61
2023-06-04T05:22:51.251Z,54.69
2023-06-04T05:25:20.458Z,54.65
2023-06-04T05:27:50.475Z,54.70
2023-06-04T05:30:19.573Z,54.58
2023-06-04T05:32:48.314Z,54.40
2023-06-04T05:35:17.910Z,54.12
2023-06-04T05:37:46.946Z,53.10
2023-06-04T05:40:16.795Z,51.90
2023-06-04T05:42:46.015Z,52.33
2023-06-04T05:45:15.154Z,52.62
2023-06-04T05:47:44.258Z,52.74
2023-06-04T05:50:12.923Z,52.61
2023-06-04T05:52:42.407Z,52.73
2023-06-04T05:55:12.739Z,52.58
2023-06-04T05:57:41.363Z,52.16
2023-06-04T06:00:11.767Z,51.88
2023-06-04T06:02:43.178Z,51.77
2023-06-04T06:05:17.251Z,51.34
2023-06-04T06:07:46.231Z,51.23
2023-06-04T06:10:15.163Z,49.97
2023-06-04T06:12:43.509Z,49.61
2023-06-04T06:15:12.225Z,49.00
2023-06-04T06:17:41.844Z,48.48
2023-06-04T06:20:11.372Z,48.18
2023-06-04T06:22:39.596Z,47.22
2023-06-04T06:25:09.244Z,47.21
2023-06-04T06:27:42.501Z,47.22
2023-06-04T06:30:13.360Z,47.02
2023-06-04T06:32:41.791Z,46.44
2023-06-04T06:35:10.399Z,44.83
2023-06-04T06:37:43.218Z,44.74
2023-06-04T06:40:12.293Z,43.80
2023-06-04T06:42:40.794Z,42.58
2023-06-04T06:45:10.163Z,42.51
2023-06-04T06:47:38.890Z,41.44
2023-06-04T06:50:09.712Z,39.99
2023-06-04T06:52:38.554Z,38.85
2023-06-04T06:55:07.499Z,38.62
2023-06-04T06:57:35.954Z,38.38
2023-06-04T07:00:05.917Z,38.48
2023-06-04T07:02:34.538Z,38.43
2023-06-04T07:05:03.177Z,37.57
2023-06-04T07:07:32.489Z,36.16
2023-06-04T07:10:01.214Z,35.74
2023-06-04T07:12:29.558Z,35.69
2023-06-04T07:14:57.983Z,35.98
2023-06-04T07:17:27.075Z,35.30
2023-06-04T07:19:55.293Z,35.13
2023-06-04T07:22:23.694Z,34.77
2023-06-04T07:24:51.931Z,33.69
2023-06-04T07:27:20.397Z,34.07
2023-06-04T07:29:48.705Z,33.89
2023-06-04T07:32:17.212Z,33.20
2023-06-04T07:34:46.106Z,32.95
2023-06-04T07:37:16.667Z,33.15
2023-06-04T07:39:45.109Z,32.35
2023-06-04T07:42:14.945Z,33.12
2023-06-04T07:44:43.617Z,33.42
2023-06-04T07:47:11.902Z,32.57
2023-06-04T07:49:50.861Z,31.44
2023-06-04T07:52:26.569Z,31.70
2023-06-04T07:54:54.854Z,32.47
2023-06-04T07:57:23.367Z,31.70
2023-06-04T07:59:53.051Z,31.35
2023-06-04T08:02:21.330Z,31.30
2023-06-04T08:04:49.802Z,31.71
2023-06-04T08:07:18.421Z,31.49
2023-06-04T08:09:47.392Z,31.45
2023-06-04T08:12:17.500Z,32.02
2023-06-04T08:14:46.456Z,31.95
2023-06-04T08:17:14.915Z,31.03
2023-06-04T08:19:43.504Z,31.30
2023-06-04T08:22:12.768Z,31.51
2023-06-04T08:24:45.730Z,31.30
2023-06-04T08:27:14.808Z,31.19
2023-06-04T08:29:43.733Z,31.03
2023-06-04T08:32:12.422Z,30.44
2023-06-04T08:34:40.975Z,29.58
2023-06-04T08:37:09.769Z,30.16
2023-06-04T08:39:38.253Z,30.51
2023-06-04T08:42:08.897Z,30.48
2023-06-04T08:44:37.382Z,30.40
2023-06-04T08:47:07.421Z,30.61
2023-06-04T08:49:40.107Z,29.52
2023-06-04T08:52:09.017Z,29.26
2023-06-04T08:54:38.153Z,29.10
2023-06-04T08:57:07.091Z,29.24
2023-06-04T08:59:36.732Z,29.01
2023-06-04T09:02:05.612Z,29.31
2023-06-04T09:04:34.131Z,29.24
2023-06-04T09:07:03.691Z,28.99
2023-06-04T09:09:38.369Z,28.81
2023-06-04T09:12:13.178Z,28.47
2023-06-04T09:14:41.842Z,28.43
2023-06-04T09:17:10.203Z,28.11
2023-06-04T09:19:38.606Z,28.00
2023-06-04T09:22:07.401Z,27.17
2023-06-04T09:24:54.102Z,25.84
2023-06-04T09:27:23.621Z,25.62
2023-06-04T09:29:52.491Z,26.02
2023-06-04T09:32:28.355Z,26.36
2023-06-04T09:35:09.894Z,25.99
2023-06-04T09:37:38.650Z,25.90
2023-06-04T09:40:11.050Z,25.09
2023-06-04T09:42:56.380Z,24.78
2023-06-04T09:45:30.056Z,23.99
2023-06-04T09:47:59.318Z,23.77
2023-06-04T09:50:40.627Z,23.20
2023-06-04T09:53:35.287Z,23.01
2023-06-04T09:56:05.063Z,22.37
2023-06-04T09:58:34.241Z,21.54
2023-06-04T10:01:06.110Z,22.12
2023-06-04T10:03:37.067Z,21.55
2023-06-04T10:06:07.120Z,20.94
2023-06-04T10:08:35.828Z,21.04
2023-06-04T10:11:05.075Z,20.58
2023-06-04T10:14:01.498Z,20.04
2023-06-04T10:16:35.009Z,20.00
2023-06-04T10:19:06.190Z,19.22
2023-06-04T10:21:38.979Z,18.50
2023-06-04T10:24:08.716Z,17.83
2023-06-04T10:26:38.325Z,17.75
2023-06-04T10:29:07.535Z,17.35
2023-06-04T10:31:38.487Z,17.54
2023-06-04T10:34:07.035Z,17.42
2023-06-04T10:36:44.906Z,17.37
2023-06-04T10:39:13.774Z,17.46
2023-06-04T10:41:42.299Z,17.29
2023-06-04T10:44:10.999Z,16.38
2023-06-04T10:46:44.580Z,15.53
2023-06-04T10:49:13.602Z,15.72
2023-06-04T10:51:42.315Z,15.96
2023-06-04T10:54:10.699Z,15.68
2023-06-04T10:56:39.358Z,15.97
2023-06-04T10:59:18.889Z,16.01
2023-06-04T11:01:47.749Z,15.29
2023-06-04T11:04:27.151Z,14.89
2023-06-04T11:07:10.228Z,14.78
2023-06-04T11:09:51.476Z,14.53
2023-06-04T11:12:20.028Z,14.81
2023-06-04T11:14:58.949Z,14.11
2023-06-04T11:17:27.644Z,14.01
2023-06-04T11:19:56.874Z,13.72
2023-06-04T11:22:26.041Z,13.86
2023-06-04T11:25:01.352Z,13.68
2023-06-04T11:27:37.124Z,12.53
2023-06-04T11:30:09.721Z,12.99
2023-06-04T11:32:38.080Z,13.34
2023-06-04T11:35:08.380Z,13.26
2023-06-04T11:37:36.919Z,13.62
2023-06-04T11:40:18.049Z,12.78
2023-06-04T11:42:48.944Z,12.52
2023-06-04T11:45:24.209Z,12.79
2023-06-04T11:47:59.172Z,12.42
2023-06-04T11:50:30.244Z,11.91
2023-06-04T11:52:59.407Z,12.32
2023-06-04T11:55:28.161Z,11.95
2023-06-04T11:57:56.778Z,12.03
2023-06-04T12:00:25.757Z,11.29
2023-06-04T12:02:56.253Z,11.09
2023-06-04T12:05:30.882Z,11.06
2023-06-04T12:08:08.723Z,11.00
2023-06-04T12:10:44.661Z,11.09
2023-06-04T12:13:13.135Z,11.61
2023-06-04T12:15:41.544Z,11.15
2023-06-04T12:18:11.006Z,10.99
2023-06-04T12:20:42.688Z,10.86
2023-06-04T12:23:21.987Z,10.72
2023-06-04T12:25:53.295Z,10.75
2023-06-04T12:28:21.700Z,10.76
2023-06-04T12:30:50.896Z,10.60
2023-06-04T12:33:19.163Z,10.86
2023-06-04T12:35:47.551Z,10.94
2023-06-04T12:38:16.033Z,11.58
2023-06-04T12:40:44.319Z,11.17
2023-06-04T12:43:12.728Z,11.25
2023-06-04T12:45:41.328Z,11.66
2023-06-04T12:48:09.933Z,12.05
2023-06-04T12:50:38.488Z,12.17
2023-06-04T12:53:06.909Z,12.61
2023-06-04T12:55:35.093Z,12.93
2023-06-04T12:58:03.323Z,12.90
2023-06-04T13:00:31.692Z,13.23
2023-06-04T13:03:00.210Z,13.62
2023-06-04T13:05:28.888Z,13.63
2023-06-04T13:07:57.877Z,13.71
2023-06-04T13:10:26.359Z,14.22
2023-06-04T13:12:54.855Z,14.26
2023-06-04T13:15:23.573Z,14.80
2023-06-04T13:17:51.976Z,14.93
2023-06-04T13:20:20.162Z,15.26
2023-06-04T13:22:48.608Z,15.52
2023-06-04T13:25:17.186Z,15.97
2023-06-04T13:27:46.168Z,15.43
2023-06-04T13:30:15.722Z,15.12
2023-06-04T13:32:44.397Z,15.39
2023-06-04T13:35:12.865Z,15.34
2023-06-04T13:37:41.350Z,15.30
2023-06-04T13:40:10.185Z,14.90
2023-06-04T13:42:38.532Z,14.80
2023-06-04T13:45:07.781Z,14.69
2023-06-04T13:47:36.759Z,14.61
2023-06-04T13:50:05.918Z,14.20
2023-06-04T13:52:34.525Z,14.68
2023-06-04T13:55:02.660Z,14.69
2023-06-04T13:57:31.018Z,13.78
2023-06-04T13:59:59.226Z,13.27
2023-06-04T14:02:27.681Z,13.20
2023-06-04T14:04:56.353Z,13.43
2023-06-04T14:07:25.040Z,13.50
2023-06-04T14:09:56.100Z,13.82
2023-06-04T14:12:25.213Z,13.89
2023-06-04T14:14:53.665Z,14.26
2023-06-04T14:17:22.199Z,14.43
2023-06-04T14:19:50.760Z,14.32
2023-06-04T14:22:19.252Z,13.82
2023-06-04T14:24:47.528Z,13.56
2023-06-04T14:27:16.422Z,13.81
2023-06-04T14:29:45.516Z,14.03
2023-06-04T14:32:14.007Z,14.30
2023-06-04T14:34:42.253Z,14.38
2023-06-04T14:37:10.405Z,14.77
2023-06-04T14:39:38.648Z,15.10
2023-06-04T14:42:07.139Z,15.43
2023-06-04T14:44:35.906Z,15.44
2023-06-04T14:47:05.645Z,15.48
2023-06-04T14:49:34.128Z,15.31
2023-06-04T14:52:02.427Z,15.51
2023-06-04T14:54:31.175Z,15.36
2023-06-04T14:56:59.518Z,15.60
2023-06-04T14:59:28.076Z,15.80
2023-06-04T15:01:56.771Z,15.90
2023-06-04T15:04:25.249Z,15.28
2023-06-04T15:06:53.564Z,14.76
2023-06-04T15:09:22.129Z,14.19
2023-06-04T15:11:51.032Z,13.69
2023-06-04T15:14:19.405Z,13.56
2023-06-04T15:16:47.729Z,13.55
2023-06-04T15:19:15.986Z,13.52
2023-06-04T15:21:45.077Z,14.18
2023-06-04T15:24:13.760Z,14.97
2023-06-04T15:26:42.381Z,15.44
2023-06-04T15:29:11.451Z,15.53
2023-06-04T15:31:39.996Z,16.40
2023-06-04T15:34:08.631Z,16.90
2023-06-04T15:36:38.596Z,16.91
2023-06-04T15:39:06.871Z,16.85
2023-06-04T15:41:35.317Z,16.90
2023-06-04T15:44:03.704Z,16.99
2023-06-04T15:46:32.188Z,16.67
2023-06-04T15:49:06.488Z,16.37
2023-06-04T15:51:36.815Z,16.67
2023-06-04T15:54:05.765Z,16.54
2023-06-04T15:56:34.199Z,16.02
2023-06-04T15:59:02.949Z,15.46
2023-06-04T16:01:32.149Z,14.84
2023-06-04T16:04:00.582Z,14.66
2023-06-04T16:06:28.808Z,14.48
2023-06-04T16:08:57.298Z,14.43
2023-06-04T16:11:27.083Z,13.92
2023-06-04T16:13:55.405Z,14.35
2023-06-04T16:16:24.578Z,14.25
2023-06-04T16:18:53.058Z,14.37
2023-06-04T16:21:22.258Z,14.50
2023-06-04T16:23:50.718Z,15.39
2023-06-04T16:26:19.403Z,16.13
2023-06-04T16:28:47.928Z,16.52
2023-06-04T16:31:16.230Z,17.02
2023-06-04T16:33:45.522Z,17.50
2023-06-04T16:36:14.056Z,17.76
2023-06-04T16:38:42.690Z,18.35
2023-06-04T16:41:11.180Z,18.63
2023-06-04T16:43:39.438Z,19.17
2023-06-04T16:46:08.037Z,19.55
2023-06-04T16:48:39.372Z,19.50
2023-06-04T16:51:08.305Z,19.67
2023-06-04T16:53:36.628Z,20.02
2023-06-04T16:56:05.325Z,20.15
2023-06-04T16:58:35.958Z,20.21
2023-06-04T17:01:04.300Z,20.77
2023-06-04T17:03:32.855Z,21.35
2023-06-04T17:06:01.431Z,21.20
2023-06-04T17:08:29.969Z,21.39
2023-06-04T17:10:58.578Z,21.21
2023-06-04T17:13:26.931Z,21.50
2023-06-04T17:15:55.422Z,21.79
2023-06-04T17:18:23.919Z,22.12
2023-06-04T17:20:52.802Z,22.11
2023-06-04T17:23:26.019Z,22.67
2023-06-04T17:25:55.008Z,22.61
2023-06-04T17:28:23.718Z,22.61
2023-06-04T17:30:52.162Z,23.20
2023-06-04T17:33:20.654Z,23.69
2023-06-04T17:35:48.763Z,24.66
2023-06-04T17:38:17.014Z,25.26
2023-06-04T17:40:45.539Z,25.66
2023-06-04T17:43:13.816Z,26.61
2023-06-04T17:45:42.999Z,27.01
2023-06-04T17:48:11.729Z,27.53
2023-06-04T17:50:40.871Z,27.97
2023-06-04T17:53:09.372Z,28.13
2023-06-04T17:55:38.093Z,28.29
2023-06-04T17:58:06.584Z,29.04
2023-06-04T18:00:34.941Z,29.73
2023-06-04T18:03:03.972Z,29.62
2023-06-04T18:05:32.485Z,30.21
2023-06-04T18:08:01.117Z,30.69
2023-06-04T18:10:29.628Z,31.26
2023-06-04T18:12:58.106Z,31.32
2023-06-04T18:15:26.773Z,31.84
2023-06-04T18:17:55.102Z,32.03
2023-06-04T18:20:24.158Z,32.16
2023-06-04T18:22:52.836Z,32.63
2023-06-04T18:25:22.885Z,33.38
2023-06-04T18:27:51.806Z,33.51
2023-06-04T18:30:20.145Z,34.03
2023-06-04T18:32:49.734Z,34.07
2023-06-04T18:35:18.169Z,34.38
2023-06-04T18:37:46.428Z,34.51
2023-06-04T18:40:15.634Z,34.43
2023-06-04T18:42:45.147Z,34.29
2023-06-04T18:45:15.684Z,34.58
2023-06-04T18:47:44.624Z,34.94
2023-06-04T18:50:13.096Z,35.75
2023-06-04T18:52:41.489Z,36.18
2023-06-04T18:55:12.221Z,36.29
2023-06-04T18:57:40.433Z,36.30
2023-06-04T19:00:14.727Z,36.76
2023-06-04T19:02:44.569Z,36.67
2023-06-04T19:05:13.643Z,37.12
2023-06-04T19:07:41.997Z,37.08
2023-06-04T19:10:12.515Z,37.19
2023-06-04T19:12:43.480Z,37.43
2023-06-04T19:15:15.231Z,38.00
2023-06-04T19:17:44.523Z,38.05
2023-06-04T19:20:13.815Z,37.98
2023-06-04T19:22:42.733Z,38.46
2023-06-04T19:25:11.223Z,38.81
2023-06-04T19:27:39.506Z,38.81
2023-06-04T19:30:08.787Z,38.92
2023-06-04T19:32:38.055Z,38.94
2023-06-04T19:35:07.074Z,39.07
2023-06-04T19:37:35.860Z,39.25
2023-06-04T19:40:06.001Z,39.46
2023-06-04T19:42:34.143Z,39.56
2023-06-04T19:45:02.494Z,39.89
2023-06-04T19:47:31.456Z,40.36
2023-06-04T19:49:59.885Z,40.53
2023-06-04T19:52:28.573Z,40.72
2023-06-04T19:54:59.807Z,41.14
2023-06-04T19:57:29.424Z,41.63
2023-06-04T19:59:58.016Z,41.56
2023-06-04T20:02:26.542Z,41.77
2023-06-04T20:04:55.020Z,41.79
2023-06-04T20:07:25.835Z,41.66
2023-06-04T20:09:54.225Z,41.74
2023-06-04T20:12:23.326Z,41.98
2023-06-04T20:14:51.725Z,42.05
2023-06-04T20:17:20.300Z,42.66
2023-06-04T20:19:48.681Z,42.94
2023-06-04T20:22:17.134Z,43.10
2023-06-04T20:24:46.376Z,43.20
2023-06-04T20:27:18.008Z,43.23
2023-06-04T20:29:46.880Z,43.50
2023-06-04T20:32:15.716Z,43.62
2023-06-04T20:34:43.995Z,43.68
2023-06-04T20:37:12.379Z,43.92
2023-06-04T20:39:42.210Z,44.07
2023-06-04T20:42:10.479Z,44.10
2023-06-04T20:44:38.784Z,44.22
2023-06-04T20:47:08.170Z,44.14
2023-06-04T20:49:36.880Z,44.23
2023-06-04T20:52:05.768Z,44.36
2023-06-04T20:54:34.246Z,44.69
2023-06-04T20:57:02.739Z,44.60
2023-06-04T20:59:31.353Z,44.38
2023-06-04T21:02:00.877Z,44.63
2023-06-04T21:04:29.841Z,44.49
2023-06-04T21:06:58.730Z,44.58
2023-06-04T21:09:27.015Z,44.90
2023-06-04T21:11:55.188Z,45.17
2023-06-04T21:14:23.684Z,45.01
2023-06-04T21:16:51.965Z,44.94
2023-06-04T21:19:20.167Z,44.75
2023-06-04T21:21:48.421Z,45.15
2023-06-04T21:24:18.617Z,45.29
2023-06-04T21:26:46.848Z,45.46
2023-06-04T21:29:15.211Z,45.23
2023-06-04T21:31:43.715Z,45.19
2023-06-04T21:34:12.009Z,45.03
2023-06-04T21:36:40.670Z,45.09
2023-06-04T21:39:09.474Z,45.17
2023-06-04T21:41:37.879Z,45.28
2023-06-04T21:44:07.167Z,45.49
2023-06-04T21:46:36.778Z,45.44
2023-06-04T21:49:05.170Z,45.47
2023-06-04T21:51:33.752Z,45.30
2023-06-04T21:54:02.125Z,45.29
2023-06-04T21:56:30.425Z,45.45
2023-06-04T21:58:59.521Z,45.93
2023-06-04T22:01:28.123Z,46.08
2023-06-04T22:03:56.647Z,46.03
2023-06-04T22:06:25.060Z,46.13
2023-06-04T22:08:53.526Z,46.15
2023-06-04T22:11:22.904Z,46.05
2023-06-04T22:13:51.143Z,46.45
2023-06-04T22:16:19.411Z,46.26
2023-06-04T22:18:52.974Z,46.28
2023-06-04T22:21:22.557Z,46.53
2023-06-04T22:23:51.474Z,46.34
2023-06-04T22:26:32.916Z,46.23
2023-06-04T22:29:06.633Z,45.74
2023-06-04T22:31:35.486Z,44.88
2023-06-04T22:34:06.280Z,44.67
2023-06-04T22:36:34.625Z,44.61
2023-06-04T22:39:03.012Z,44.41
2023-06-04T22:41:31.516Z,43.98
2023-06-04T22:44:00.441Z,43.49
2023-06-04T22:46:29.495Z,42.93
2023-06-04T22:48:57.808Z,42.41
2023-06-04T22:51:26.576Z,42.07
2023-06-04T22:53:56.410Z,41.78
2023-06-04T22:56:24.910Z,41.33
2023-06-04T22:58:53.280Z,41.64
2023-06-04T23:01:21.593Z,41.84
2023-06-04T23:03:50.011Z,42.41
2023-06-04T23:06:18.843Z,42.30
2023-06-04T23:08:47.452Z,42.10
2023-06-04T23:11:15.917Z,41.96
2023-06-04T23:13:46.389Z,41.58
2023-06-04T23:16:15.204Z,41.60
2023-06-04T23:18:43.626Z,41.54
2023-06-04T23:21:11.942Z,41.52
2023-06-04T23:23:40.528Z,41.32
2023-06-04T23:26:09.102Z,41.45
2023-06-04T23:28:37.450Z,41.83
2023-06-04T23:31:06.053Z,42.05
2023-06-04T23:33:34.276Z,42.03
2023-06-04T23:36:02.640Z,42.04
2023-06-04T23:38:30.992Z,42.32
2023-06-04T23:40:59.116Z,42.39
2023-06-04T23:43:27.571Z,42.41
2023-06-04T23:45:56.173Z,42.32
2023-06-04T23:48:24.751Z,42.15
2023-06-04T23:50:53.334Z,42.05
2023-06-04T23:53:22.656Z,42.17
2023-06-04T23:55:50.962Z,41.98
2023-06-04T23:58:19.618Z,42.07
